Moby Baby — ICEM — position and weather

sailwx.info

Track history (hours):
 
Tides and Currents Weather Stations Pressure Air Temp Water Temp Dewpoint Dewpoint Depression Visibility Wind Speed Wind Dir Waves Ship Positions

Moby Baby

Last reported at 2014-Oct-01 07:34 UTC. Time now 2014-Oct-01 08:15 UTC.
Position N 44°24' E 008°55'.

Length 99 m; draft 4.5 m.

Type: Ship. MMSI: 247049900.

Date/timePositionNaut miles runAvg speedWind from/ knotsBaromVisibWave heightAir tempDewpointWater temp
2014-Oct-01 07:34N 44°24' E 008°55'0 0.0
2014-Oct-01 06:33N 44°24' E 008°55'0 0.0
2014-Oct-01 05:31N 44°24' E 008°55'0 0.0
2014-Oct-01 04:33N 44°24' E 008°55'0 0.0
2014-Oct-01 03:34N 44°24' E 008°55'0 0.0
2014-Oct-01 02:33N 44°24' E 008°55'0 0.0
2014-Oct-01 01:33N 44°24' E 008°55'0 0.0
2014-Oct-01 00:26N 44°24' E 008°55'0 0.0
2014-Sep-30 23:33N 44°24' E 008°55'0 0.0
2014-Sep-30 22:33N 44°24' E 008°55'0 0.0
2014-Sep-30 21:34N 44°24' E 008°55'0 0.0
2014-Sep-30 20:33N 44°24' E 008°55'0 0.0
2014-Sep-30 19:33N 44°24' E 008°55'0 0.0
2014-Sep-30 18:33N 44°24' E 008°55'0 0.0
2014-Sep-30 17:33N 44°24' E 008°55'0 0.0
2014-Sep-30 16:34N 44°24' E 008°55'0 0.0
2014-Sep-30 15:33N 44°24' E 008°55'0 0.0
2014-Sep-30 14:33N 44°24' E 008°55'0 0.0
2014-Sep-30 13:34N 44°24' E 008°55'0 0.0
2014-Sep-30 12:33N 44°24' E 008°55'0 0.0
2014-Sep-30 11:33N 44°24' E 008°55'0 0.0
2014-Sep-30 10:33N 44°24' E 008°55'0 0.0
2014-Sep-30 09:33N 44°24' E 008°55'0 0.0
2014-Sep-30 08:33N 44°24' E 008°55'0 0.0
2014-Sep-30 07:33N 44°24' E 008°55'0 0.0
2014-Sep-30 06:34N 44°24' E 008°55'0 0.0
2014-Sep-30 05:33N 44°24' E 008°55'0 0.0
2014-Sep-30 04:32N 44°24' E 008°55'0 0.0
2014-Sep-30 03:33N 44°24' E 008°55'0 0.0
2014-Sep-30 02:32N 44°24' E 008°55'0 0.0
2014-Sep-30 01:33N 44°24' E 008°55'0 0.0
2014-Sep-30 00:34N 44°24' E 008°55'0 0.0
2014-Sep-29 23:34N 44°24' E 008°55'0 0.0
2014-Sep-29 22:32N 44°24' E 008°55'0 0.0
2014-Sep-29 21:34N 44°24' E 008°55'0 0.0
2014-Sep-29 20:33N 44°24' E 008°55'0 0.0
2014-Sep-29 19:33N 44°24' E 008°55'0 0.0
2014-Sep-29 18:33N 44°24' E 008°55'0 0.0
2014-Sep-29 17:33N 44°24' E 008°55'0 0.0
2014-Sep-29 16:34N 44°24' E 008°55'0 0.0
2014-Sep-29 15:34N 44°24' E 008°55'0 0.0
2014-Sep-29 14:34N 44°24' E 008°55'0 0.0
2014-Sep-29 13:32N 44°24' E 008°55'0 0.0
2014-Sep-29 12:33N 44°24' E 008°55'0 0.0
2014-Sep-29 11:33N 44°24' E 008°55'2 1.9
2014-Sep-29 10:33N 44°23' E 008°57'1211.9
2014-Sep-29 09:33N 44°13' E 009°06'1615.6
2014-Sep-29 08:33N 43°60' E 009°18'1616.0
2014-Sep-29 07:33N 43°46' E 009°29'1615.8
2014-Sep-29 06:33N 43°32' E 009°39'1515.0
2014-Sep-29 05:33N 43°19' E 009°51'1615.5
2014-Sep-29 04:33N 43°09' E 010°07'1615.6
2014-Sep-29 03:33N 42°59' E 010°22'10 0.9
2014-Sep-28 17:14N 42°49' E 010°21'5 3.0
2014-Sep-28 15:34N 42°53' E 010°25'6 6.2
2014-Sep-28 14:32N 42°56' E 010°33'1212.5
2014-Sep-28 13:33N 42°49' E 010°19'6 6.4
2014-Sep-28 12:33N 42°53' E 010°25'5 1.7
2014-Sep-28 09:22N 42°54' E 010°32'11 5.0
2014-Sep-28 07:09N 42°49' E 010°20'814.0
2014-Sep-28 06:34N 42°54' E 010°28'4 4.0
2014-Sep-28 05:30N 42°56' E 010°33'1213.1
2014-Sep-28 04:33N 42°49' E 010°20'0 0.1
2014-Sep-28 03:33N 42°49' E 010°19'0 0.0
2014-Sep-28 02:34N 42°49' E 010°19'0 0.0
2014-Sep-28 01:33N 42°49' E 010°19'0 0.0
2014-Sep-28 00:33N 42°49' E 010°19'0 0.0
2014-Sep-27 23:33N 42°49' E 010°19'0 0.0
2014-Sep-27 22:33N 42°49' E 010°19'0 0.0
2014-Sep-27 21:34N 42°49' E 010°19'0 0.0
2014-Sep-27 20:34N 42°49' E 010°19'0 0.0
2014-Sep-27 19:33N 42°49' E 010°19'0 0.0
2014-Sep-27 18:33N 42°49' E 010°19'0 0.0
2014-Sep-27 17:33N 42°49' E 010°19'0 0.0
2014-Sep-27 16:31N 42°49' E 010°19'6 6.5
2014-Sep-27 15:33N 42°53' E 010°26'6 6.2
2014-Sep-27 14:33N 42°56' E 010°33'1212.4
2014-Sep-27 13:33N 42°49' E 010°19'6 6.2
2014-Sep-27 12:34N 42°53' E 010°25'6 2.1
2014-Sep-27 09:31N 42°56' E 010°33'12 5.2
2014-Sep-27 07:09N 42°49' E 010°20'914.1
2014-Sep-27 06:30N 42°54' E 010°30'3 3.3
2014-Sep-27 05:32N 42°56' E 010°33'12 1.2
2014-Sep-26 19:30N 42°49' E 010°20'6 2.9
2014-Sep-26 17:32N 42°53' E 010°25'1 0.4
2014-Sep-26 15:33N 42°53' E 010°26'6 6.1
2014-Sep-26 14:31N 42°56' E 010°33'1311.1
2014-Sep-26 13:23N 42°49' E 010°19'7 7.9
2014-Sep-26 12:33N 42°53' E 010°26'5 1.5
2014-Sep-26 09:22N 42°54' E 010°32'11 5.0
2014-Sep-26 07:11N 42°49' E 010°19'913.9
2014-Sep-26 06:31N 42°54' E 010°30'3 3.5
2014-Sep-26 05:32N 42°56' E 010°33'7 0.5
2014-Sep-25 15:33N 42°53' E 010°25'7 6.9
2014-Sep-25 14:33N 42°56' E 010°33'7 0.3
2014-Sep-24 15:34N 42°53' E 010°25'6 0.9
2014-Sep-24 09:19N 42°54' E 010°32'10 4.6
2014-Sep-24 07:09N 42°49' E 010°21'1014.2
2014-Sep-24 06:25N 42°55' E 010°32'2 1.8
2014-Sep-24 05:33N 42°56' E 010°33'11 1.1
2014-Sep-23 19:21N 42°49' E 010°21'10 1.0
2014-Sep-23 09:23N 42°54' E 010°32'11 5.0
2014-Sep-23 07:11N 42°49' E 010°19'913.8
2014-Sep-23 06:33N 42°54' E 010°29'4 3.5
2014-Sep-23 05:31N 42°56' E 010°33'12 1.2
2014-Sep-22 19:31N 42°48' E 010°20'6 1.5
2014-Sep-22 15:32N 42°53' E 010°25'5 0.3
2014-Sep-21 19:26N 42°49' E 010°21'5 2.6
2014-Sep-21 17:33N 42°53' E 010°25'1 0.4
2014-Sep-21 15:33N 42°53' E 010°26'6 6.4
2014-Sep-21 14:34N 42°56' E 010°33'1311.5
2014-Sep-21 13:28N 42°49' E 010°19'11 9.1
2014-Sep-21 12:16N 42°55' E 010°32'2 1.1
2014-Sep-21 10:32N 42°56' E 010°33'13 8.8
2014-Sep-21 09:06N 42°49' E 010°19'0 0.0
2014-Sep-21 08:28N 42°49' E 010°19'  
Track history (hours):
 
Tides and Currents Weather Stations Pressure Air Temp Water Temp Dewpoint Dewpoint Depression Visibility Wind Speed Wind Dir Waves Ship Positions

Moby Baby

Last reported at 2014-Oct-01 07:34 UTC. Time now 2014-Oct-01 08:15 UTC.
Position N 44°24' E 008°55'.

Length 99 m; draft 4.5 m.

Type: Ship. MMSI: 247049900.

Date/timePositionNaut miles runAvg speedWind from/ knotsBaromVisibWave heightAir tempDewpointWater temp
2014-Oct-01 07:34N 44°24' E 008°55'0 0.0
2014-Oct-01 06:33N 44°24' E 008°55'0 0.0
2014-Oct-01 05:31N 44°24' E 008°55'0 0.0
2014-Oct-01 04:33N 44°24' E 008°55'0 0.0
2014-Oct-01 03:34N 44°24' E 008°55'0 0.0
2014-Oct-01 02:33N 44°24' E 008°55'0 0.0
2014-Oct-01 01:33N 44°24' E 008°55'0 0.0
2014-Oct-01 00:26N 44°24' E 008°55'0 0.0
2014-Sep-30 23:33N 44°24' E 008°55'0 0.0
2014-Sep-30 22:33N 44°24' E 008°55'0 0.0
2014-Sep-30 21:34N 44°24' E 008°55'0 0.0
2014-Sep-30 20:33N 44°24' E 008°55'0 0.0
2014-Sep-30 19:33N 44°24' E 008°55'0 0.0
2014-Sep-30 18:33N 44°24' E 008°55'0 0.0
2014-Sep-30 17:33N 44°24' E 008°55'0 0.0
2014-Sep-30 16:34N 44°24' E 008°55'0 0.0
2014-Sep-30 15:33N 44°24' E 008°55'0 0.0
2014-Sep-30 14:33N 44°24' E 008°55'0 0.0
2014-Sep-30 13:34N 44°24' E 008°55'0 0.0
2014-Sep-30 12:33N 44°24' E 008°55'0 0.0
2014-Sep-30 11:33N 44°24' E 008°55'0 0.0
2014-Sep-30 10:33N 44°24' E 008°55'0 0.0
2014-Sep-30 09:33N 44°24' E 008°55'0 0.0
2014-Sep-30 08:33N 44°24' E 008°55'0 0.0
2014-Sep-30 07:33N 44°24' E 008°55'0 0.0
2014-Sep-30 06:34N 44°24' E 008°55'0 0.0
2014-Sep-30 05:33N 44°24' E 008°55'0 0.0
2014-Sep-30 04:32N 44°24' E 008°55'0 0.0
2014-Sep-30 03:33N 44°24' E 008°55'0 0.0
2014-Sep-30 02:32N 44°24' E 008°55'0 0.0
2014-Sep-30 01:33N 44°24' E 008°55'0 0.0
2014-Sep-30 00:34N 44°24' E 008°55'0 0.0
2014-Sep-29 23:34N 44°24' E 008°55'0 0.0
2014-Sep-29 22:32N 44°24' E 008°55'0 0.0
2014-Sep-29 21:34N 44°24' E 008°55'0 0.0
2014-Sep-29 20:33N 44°24' E 008°55'0 0.0
2014-Sep-29 19:33N 44°24' E 008°55'0 0.0
2014-Sep-29 18:33N 44°24' E 008°55'0 0.0
2014-Sep-29 17:33N 44°24' E 008°55'0 0.0
2014-Sep-29 16:34N 44°24' E 008°55'0 0.0
2014-Sep-29 15:34N 44°24' E 008°55'0 0.0
2014-Sep-29 14:34N 44°24' E 008°55'0 0.0
2014-Sep-29 13:32N 44°24' E 008°55'0 0.0
2014-Sep-29 12:33N 44°24' E 008°55'0 0.0
2014-Sep-29 11:33N 44°24' E 008°55'2 1.9
2014-Sep-29 10:33N 44°23' E 008°57'1211.9
2014-Sep-29 09:33N 44°13' E 009°06'1615.6
2014-Sep-29 08:33N 43°60' E 009°18'1616.0
2014-Sep-29 07:33N 43°46' E 009°29'1615.8
2014-Sep-29 06:33N 43°32' E 009°39'1515.0
2014-Sep-29 05:33N 43°19' E 009°51'1615.5
2014-Sep-29 04:33N 43°09' E 010°07'1615.6
2014-Sep-29 03:33N 42°59' E 010°22'10 0.9
2014-Sep-28 17:14N 42°49' E 010°21'5 3.0
2014-Sep-28 15:34N 42°53' E 010°25'6 6.2
2014-Sep-28 14:32N 42°56' E 010°33'1212.5
2014-Sep-28 13:33N 42°49' E 010°19'6 6.4
2014-Sep-28 12:33N 42°53' E 010°25'5 1.7
2014-Sep-28 09:22N 42°54' E 010°32'11 5.0
2014-Sep-28 07:09N 42°49' E 010°20'814.0
2014-Sep-28 06:34N 42°54' E 010°28'4 4.0
2014-Sep-28 05:30N 42°56' E 010°33'1213.1
2014-Sep-28 04:33N 42°49' E 010°20'0 0.1
2014-Sep-28 03:33N 42°49' E 010°19'0 0.0
2014-Sep-28 02:34N 42°49' E 010°19'0 0.0
2014-Sep-28 01:33N 42°49' E 010°19'0 0.0
2014-Sep-28 00:33N 42°49' E 010°19'0 0.0
2014-Sep-27 23:33N 42°49' E 010°19'0 0.0
2014-Sep-27 22:33N 42°49' E 010°19'0 0.0
2014-Sep-27 21:34N 42°49' E 010°19'0 0.0
2014-Sep-27 20:34N 42°49' E 010°19'0 0.0
2014-Sep-27 19:33N 42°49' E 010°19'0 0.0
2014-Sep-27 18:33N 42°49' E 010°19'0 0.0
2014-Sep-27 17:33N 42°49' E 010°19'0 0.0
2014-Sep-27 16:31N 42°49' E 010°19'6 6.5
2014-Sep-27 15:33N 42°53' E 010°26'6 6.2
2014-Sep-27 14:33N 42°56' E 010°33'1212.4
2014-Sep-27 13:33N 42°49' E 010°19'6 6.2
2014-Sep-27 12:34N 42°53' E 010°25'6 2.1
2014-Sep-27 09:31N 42°56' E 010°33'12 5.2
2014-Sep-27 07:09N 42°49' E 010°20'914.1
2014-Sep-27 06:30N 42°54' E 010°30'3 3.3
2014-Sep-27 05:32N 42°56' E 010°33'12 1.2
2014-Sep-26 19:30N 42°49' E 010°20'6 2.9
2014-Sep-26 17:32N 42°53' E 010°25'1 0.4
2014-Sep-26 15:33N 42°53' E 010°26'6 6.1
2014-Sep-26 14:31N 42°56' E 010°33'1311.1
2014-Sep-26 13:23N 42°49' E 010°19'7 7.9
2014-Sep-26 12:33N 42°53' E 010°26'5 1.5
2014-Sep-26 09:22N 42°54' E 010°32'11 5.0
2014-Sep-26 07:11N 42°49' E 010°19'913.9
2014-Sep-26 06:31N 42°54' E 010°30'3 3.5
2014-Sep-26 05:32N 42°56' E 010°33'7 0.5
2014-Sep-25 15:33N 42°53' E 010°25'7 6.9
2014-Sep-25 14:33N 42°56' E 010°33'7 0.3
2014-Sep-24 15:34N 42°53' E 010°25'6 0.9
2014-Sep-24 09:19N 42°54' E 010°32'10 4.6
2014-Sep-24 07:09N 42°49' E 010°21'1014.2
2014-Sep-24 06:25N 42°55' E 010°32'2 1.8
2014-Sep-24 05:33N 42°56' E 010°33'11 1.1
2014-Sep-23 19:21N 42°49' E 010°21'10 1.0
2014-Sep-23 09:23N 42°54' E 010°32'11 5.0
2014-Sep-23 07:11N 42°49' E 010°19'913.8
2014-Sep-23 06:33N 42°54' E 010°29'4 3.5
2014-Sep-23 05:31N 42°56' E 010°33'12 1.2
2014-Sep-22 19:31N 42°48' E 010°20'6 1.5
2014-Sep-22 15:32N 42°53' E 010°25'5 0.3
2014-Sep-21 19:26N 42°49' E 010°21'5 2.6
2014-Sep-21 17:33N 42°53' E 010°25'1 0.4
2014-Sep-21 15:33N 42°53' E 010°26'6 6.4
2014-Sep-21 14:34N 42°56' E 010°33'1311.5
2014-Sep-21 13:28N 42°49' E 010°19'11 9.1
2014-Sep-21 12:16N 42°55' E 010°32'2 1.1
2014-Sep-21 10:32N 42°56' E 010°33'13 8.8
2014-Sep-21 09:06N 42°49' E 010°19'0 0.0
2014-Sep-21 08:28N 42°49' E 010°19'  

Dump ship's entire track history